createdAt,value
2019-02-02T00:02:33.788Z,35.70
2019-02-02T00:07:37.125Z,33.17
2019-02-02T00:12:42.673Z,35.23
2019-02-02T00:17:46.001Z,33.90
2019-02-02T00:22:52.464Z,35.20
2019-02-02T00:27:58.944Z,34.33
2019-02-02T00:33:02.369Z,34.50
2019-02-02T00:38:20.349Z,35.17
2019-02-02T00:43:23.733Z,35.10
2019-02-02T00:48:27.248Z,35.80
2019-02-02T00:53:34.007Z,32.87
2019-02-02T00:58:39.380Z,34.97
2019-02-02T01:03:42.590Z,34.87
2019-02-02T01:08:46.085Z,35.47
2019-02-02T01:13:55.646Z,34.10
2019-02-02T01:18:59.008Z,37.47
2019-02-02T01:24:05.575Z,35.53
2019-02-02T01:29:09.160Z,35.80
2019-02-02T01:34:17.809Z,34.27
2019-02-02T01:39:21.027Z,33.17
2019-02-02T01:44:24.413Z,35.10
2019-02-02T01:49:34.014Z,34.97
2019-02-02T01:54:38.883Z,36.70
2019-02-02T01:59:42.250Z,36.43
2019-02-02T02:04:45.577Z,35.57
2019-02-02T02:09:52.330Z,34.13
2019-02-02T02:15:01.714Z,35.13
2019-02-02T02:20:05.349Z,34.67
2019-02-02T02:25:13.678Z,35.03
2019-02-02T02:30:21.186Z,35.20
2019-02-02T02:35:24.682Z,34.10
2019-02-02T02:40:30.449Z,35.10
2019-02-02T02:45:35.230Z,33.37
2019-02-02T02:50:38.683Z,34.17
2019-02-02T02:55:42.027Z,34.20
2019-02-02T03:00:45.454Z,34.07
2019-02-02T03:05:51.711Z,33.53
2019-02-02T03:10:55.014Z,35.20
2019-02-02T03:15:58.509Z,34.80
2019-02-02T03:21:01.960Z,34.60
2019-02-02T03:26:05.472Z,34.50
2019-02-02T03:31:11.704Z,31.40
2019-02-02T03:36:14.877Z,36.80
2019-02-02T03:41:18.184Z,35.37
2019-02-02T03:46:21.740Z,34.47
2019-02-02T03:51:25.232Z,36.23
2019-02-02T03:56:28.518Z,35.87
2019-02-02T04:01:32.533Z,35.90
2019-02-02T04:06:35.843Z,34.23
2019-02-02T04:11:56.748Z,34.60
2019-02-02T04:17:01.481Z,35.20
2019-02-02T04:22:08.110Z,34.53
2019-02-02T04:27:17.213Z,36.50
2019-02-02T04:32:20.971Z,34.57
2019-02-02T04:37:24.550Z,35.50
2019-02-02T04:42:27.787Z,35.90
2019-02-02T04:47:31.795Z,35.27
2019-02-02T04:52:41.246Z,37.47
2019-02-02T04:57:54.249Z,35.93
2019-02-02T05:02:58.001Z,37.57
2019-02-02T05:08:02.092Z,36.60
2019-02-02T05:13:11.562Z,37.20
2019-02-02T05:18:24.544Z,35.73
2019-02-02T05:23:28.345Z,37.00
2019-02-02T05:28:31.568Z,37.63
2019-02-02T05:33:34.924Z,36.60
2019-02-02T05:38:38.274Z,38.67
2019-02-02T05:43:41.886Z,36.97
2019-02-02T05:48:45.377Z,36.97
2019-02-02T05:53:48.873Z,38.27
2019-02-02T05:58:55.119Z,38.23
2019-02-02T06:03:58.425Z,39.90
2019-02-02T06:09:07.194Z,38.57
2019-02-02T06:14:10.768Z,38.57
2019-02-02T06:19:14.220Z,38.37
2019-02-02T06:24:17.629Z,39.63
2019-02-02T06:29:22.636Z,37.37
2019-02-02T06:34:25.992Z,39.60
2019-02-02T06:39:30.334Z,39.93
2019-02-02T06:44:36.881Z,40.37
2019-02-02T06:49:43.292Z,40.17
2019-02-02T06:54:46.599Z,38.60
2019-02-02T06:59:52.661Z,40.10
2019-02-02T07:04:56.155Z,38.90
2019-02-02T07:09:59.510Z,39.67
2019-02-02T07:15:05.352Z,41.57
2019-02-02T07:20:09.850Z,40.70
2019-02-02T07:25:13.420Z,42.93
2019-02-02T07:30:28.382Z,41.03
2019-02-02T07:35:23.241Z,42.27
2019-02-02T07:40:26.538Z,41.70
2019-02-02T07:45:30.447Z,40.90
2019-02-02T07:50:33.662Z,42.10
2019-02-02T07:55:36.976Z,42.67
2019-02-02T08:00:41.328Z,41.40
2019-02-02T08:05:45.014Z,43.97
2019-02-02T08:10:48.439Z,44.20
2019-02-02T08:16:01.037Z,43.73
2019-02-02T08:21:07.622Z,40.27
2019-02-02T08:26:14.211Z,43.13
2019-02-02T08:31:24.077Z,44.77
2019-02-02T08:36:27.520Z,43.47
2019-02-02T08:41:33.794Z,43.03
2019-02-02T08:46:43.634Z,43.33
2019-02-02T08:51:46.995Z,44.10
2019-02-02T08:56:50.387Z,46.00
2019-02-02T09:01:53.869Z,47.33
2019-02-02T09:06:58.410Z,44.27
2019-02-02T09:12:04.691Z,45.30
2019-02-02T09:17:11.329Z,47.60
2019-02-02T09:22:14.731Z,46.07
2019-02-02T09:27:18.408Z,47.03
2019-02-02T09:32:21.854Z,46.97
2019-02-02T09:37:25.422Z,49.17
2019-02-02T09:42:28.905Z,48.83
2019-02-02T09:47:32.003Z,46.87
2019-02-02T09:52:35.323Z,51.10
2019-02-02T09:57:39.497Z,49.83
2019-02-02T10:02:45.914Z,50.83
2019-02-02T10:08:02.302Z,49.57
2019-02-02T10:13:08.747Z,53.57
2019-02-02T10:18:15.230Z,48.87
2019-02-02T10:23:18.717Z,54.13
2019-02-02T10:28:22.196Z,50.20
2019-02-02T10:33:25.617Z,52.70
2019-02-02T10:38:28.941Z,57.23
2019-02-02T10:43:32.267Z,50.70
2019-02-02T10:48:35.396Z,52.13
2019-02-02T10:53:44.609Z,51.20
2019-02-02T10:58:50.987Z,54.93
2019-02-02T11:03:54.587Z,51.47
2019-02-02T11:08:59.295Z,52.53
2019-02-02T11:14:05.696Z,52.60
2019-02-02T11:19:09.130Z,53.10
2019-02-02T11:24:12.297Z,52.30
2019-02-02T11:29:15.584Z,51.00
2019-02-02T11:34:18.880Z,53.40
2019-02-02T11:39:22.186Z,54.10
2019-02-02T11:44:25.677Z,54.03
2019-02-02T11:49:29.297Z,53.70
2019-02-02T11:54:32.812Z,55.97
2019-02-02T11:59:36.160Z,56.07
2019-02-02T12:04:42.525Z,57.37
2019-02-02T12:09:45.873Z,57.47
2019-02-02T12:14:49.451Z,56.57
2019-02-02T12:19:52.866Z,55.07
2019-02-02T12:24:56.291Z,55.87
2019-02-02T12:30:06.684Z,53.93
2019-02-02T12:35:12.122Z,53.30
2019-02-02T12:40:15.730Z,55.73
2019-02-02T12:45:21.707Z,52.07
2019-02-02T12:50:28.105Z,54.27
2019-02-02T12:55:34.552Z,50.80
2019-02-02T13:00:37.989Z,51.97
2019-02-02T13:05:41.410Z,51.67
2019-02-02T13:10:46.361Z,48.50
2019-02-02T13:15:52.092Z,54.30
2019-02-02T13:21:01.548Z,53.90
2019-02-02T13:26:05.825Z,54.40
2019-02-02T13:31:09.397Z,52.50
2019-02-02T13:36:15.219Z,50.10
2019-02-02T13:41:18.859Z,51.17
2019-02-02T13:46:22.297Z,50.67
2019-02-02T13:51:25.825Z,51.07
2019-02-02T13:56:32.401Z,49.53
2019-02-02T14:01:42.175Z,49.27
2019-02-02T14:06:40.887Z,49.70
2019-02-02T14:11:46.323Z,47.57
2019-02-02T14:16:49.686Z,47.97
2019-02-02T14:21:52.975Z,45.70
2019-02-02T14:26:59.037Z,48.00
2019-02-02T14:32:05.236Z,47.40
2019-02-02T14:37:10.262Z,47.10
2019-02-02T14:42:13.663Z,50.73
2019-02-02T14:47:20.350Z,47.40
2019-02-02T14:52:26.220Z,46.63
2019-02-02T14:57:29.666Z,45.43
2019-02-02T15:02:34.007Z,50.40
2019-02-02T15:07:37.310Z,44.47
2019-02-02T15:12:40.761Z,45.17
2019-02-02T15:17:44.670Z,44.23
2019-02-02T15:22:47.998Z,45.87
2019-02-02T15:27:51.650Z,45.10
2019-02-02T15:32:55.677Z,45.40
2019-02-02T15:37:59.906Z,41.37
2019-02-02T15:43:22.565Z,42.87
2019-02-02T15:48:26.918Z,43.80
2019-02-02T15:53:30.957Z,42.57
2019-02-02T15:58:34.963Z,46.40
2019-02-02T16:03:49.384Z,44.23
2019-02-02T16:08:46.394Z,43.37
2019-02-02T16:13:51.452Z,44.03
2019-02-02T16:18:55.398Z,41.43
2019-02-02T16:24:08.309Z,41.50
2019-02-02T16:29:14.182Z,43.60
2019-02-02T16:34:23.175Z,41.60
2019-02-02T16:39:28.468Z,40.47
2019-02-02T16:44:37.937Z,41.73
2019-02-02T16:49:41.659Z,43.87
2019-02-02T16:54:48.395Z,41.37
2019-02-02T16:59:51.839Z,42.50
2019-02-02T17:04:55.207Z,42.60
2019-02-02T17:10:00.470Z,41.97
2019-02-02T17:15:05.771Z,42.47
2019-02-02T17:20:31.767Z,42.30
2019-02-02T17:25:35.384Z,41.67
2019-02-02T17:30:38.882Z,42.03
2019-02-02T17:35:42.400Z,44.97
2019-02-02T17:40:48.070Z,42.47
2019-02-02T17:45:51.548Z,42.87
2019-02-02T17:50:54.979Z,43.27
2019-02-02T17:55:58.479Z,45.70
2019-02-02T18:01:02.199Z,45.20
2019-02-02T18:06:05.818Z,43.70
2019-02-02T18:11:11.014Z,43.40
2019-02-02T18:16:14.586Z,43.40
2019-02-02T18:21:20.913Z,43.67
2019-02-02T18:26:24.303Z,44.40
2019-02-02T18:31:28.147Z,45.37
2019-02-02T18:36:34.417Z,42.83
2019-02-02T18:41:37.925Z,46.43
2019-02-02T18:46:44.200Z,43.57
2019-02-02T18:51:47.694Z,44.37
2019-02-02T18:56:51.137Z,44.57
2019-02-02T19:02:00.050Z,45.30
2019-02-02T19:07:05.527Z,46.60
2019-02-02T19:12:09.271Z,47.67
2019-02-02T19:17:12.744Z,48.27
2019-02-02T19:22:16.401Z,48.53
2019-02-02T19:27:19.810Z,44.67
2019-02-02T19:32:38.735Z,46.63
2019-02-02T19:37:40.040Z,44.97
2019-02-02T19:42:46.060Z,47.07
2019-02-02T19:47:52.541Z,43.63
2019-02-02T19:53:01.954Z,45.73
2019-02-02T19:58:05.363Z,45.33
2019-02-02T20:03:08.752Z,44.40
2019-02-02T20:08:15.084Z,43.80
2019-02-02T20:13:19.603Z,42.37
2019-02-02T20:18:25.025Z,45.70
2019-02-02T20:23:27.891Z,44.20
2019-02-02T20:28:31.296Z,42.80
2019-02-02T20:33:34.657Z,42.07
2019-02-02T20:38:40.068Z,40.93
2019-02-02T20:43:43.260Z,40.87
2019-02-02T20:48:50.898Z,43.47
2019-02-02T20:53:54.775Z,40.30
2019-02-02T20:58:59.225Z,43.80
2019-02-02T21:04:05.606Z,43.70
2019-02-02T21:09:08.915Z,43.70
2019-02-02T21:14:12.431Z,42.20
2019-02-02T21:19:15.748Z,41.10
2019-02-02T21:24:19.295Z,42.03
2019-02-02T21:29:25.754Z,44.60
2019-02-02T21:34:29.395Z,44.17
2019-02-02T21:39:35.575Z,42.80
2019-02-02T21:44:43.259Z,42.17
2019-02-02T21:49:44.134Z,41.53
2019-02-02T21:54:50.288Z,40.77
2019-02-02T21:59:53.698Z,43.47
2019-02-02T22:04:57.016Z,41.00
2019-02-02T22:10:00.357Z,39.60
2019-02-02T22:15:05.362Z,37.97
2019-02-02T22:20:09.847Z,41.37
2019-02-02T22:25:15.314Z,40.83
2019-02-02T22:30:23.721Z,40.00
2019-02-02T22:35:26.886Z,40.07
2019-02-02T22:40:33.244Z,43.30
2019-02-02T22:45:36.653Z,38.53
2019-02-02T22:50:40.081Z,39.27
2019-02-02T22:55:43.519Z,40.50
2019-02-02T23:01:27.048Z,39.63
2019-02-02T23:07:13.690Z,41.77
2019-02-02T23:13:10.844Z,39.53
2019-02-02T23:18:14.220Z,37.23
2019-02-02T23:23:17.669Z,37.90
2019-02-02T23:28:21.082Z,37.50
2019-02-02T23:33:24.601Z,37.50
2019-02-02T23:38:27.834Z,40.90
2019-02-02T23:43:31.163Z,35.90
2019-02-02T23:48:34.633Z,38.43
2019-02-02T23:53:37.984Z,36.23
2019-02-02T23:58:41.390Z,37.57
